Home > Products > Valid Products > MTR

000
SAUS41 KPHI 210155
MTRACY
METAR KACY 210154Z 35004KT 10SM OVC032 M03/M06 A3030 RMK AO2 SLP260
T10331061





000
SAUS41 KPHI 210155
MTR12N
METAR K12N 210154Z AUTO 00000KT M02/M07 A3028 RMK AO1 SLP265
T10171067





000
SAUS41 KPHI 210056
MTRACY
METAR KACY 210054Z 28003KT 10SM CLR M01/M06 A3030 RMK AO2 SLP262
T10111061





000
SAUS41 KPHI 210055
MTR12N
METAR K12N 210054Z AUTO 35003KT M02/M07 A3027 RMK AO1 SLP263
T10171067





000
SAUS41 KPHI 202357
MTRACY
METAR KACY 202354Z 36003KT 10SM CLR M01/M07 A3029 RMK AO2 SLP259
T10111067 10017 21017 51013





000
SAUS41 KPHI 202355
MTR12N
METAR K12N 202354Z AUTO 00000KT M02/M07 A3027 RMK AO1 SLP262
T10171067 11011 21017 52006





000
SAUS41 KPHI 202257
MTRACY
METAR KACY 202254Z 35004KT 10SM FEW030 M01/M06 A3028 RMK AO2 SLP255
T10061061





000
SAUS41 KPHI 202255
MTR12N
METAR K12N 202254Z AUTO 00000KT M02/M07 A3026 RMK AO1 SLP261
T10171067





000
SAUS41 KPHI 202155
MTRACY
METAR KACY 202154Z 32005KT 10SM OVC030 01/M06 A3028 RMK AO2 SLP253
T00061061





000
SAUS41 KPHI 202155
MTR12N
METAR K12N 202154Z AUTO VRB03KT M02/M07 A3025 RMK AO1 SLP257
T10171072





000
SAUS41 KPHI 202139
MTRACY
SPECI KACY 202136Z 30003KT 10SM OVC030 01/M06 A3027 RMK AO2
T00061061





000
SAUS41 KPHI 202057
MTRACY
METAR KACY 202054Z 34006KT 10SM OVC029 01/M06 A3026 RMK AO2 SLP246
T00111056 55008





000
SAUS41 KPHI 202055
MTR12N
METAR K12N 202054Z AUTO VRB03KT M02/M07 A3025 RMK AO1 SLP256
T10171067 53003





000
SAUS41 KPHI 201957
MTRACY
METAR KACY 201954Z 36006KT 10SM OVC029 02/M06 A3025 RMK AO2 SLP245
T00171056





000
SAUS41 KPHI 201955
MTR12N
METAR K12N 201954Z AUTO VRB03KT M02/M07 A3024 RMK AO1 SLP253
T10171067





000
SAUS41 KPHI 201906
MTRACY
SPECI KACY 201905Z 35006KT 10SM OVC029 02/M06 A3025 RMK AO2
T00171056





000
SAUS41 KPHI 201856
MTRACY
METAR KACY 201854Z 33006KT 10SM OVC030 02/M06 A3025 RMK AO2 SLP244
T00171056





000
SAUS41 KPHI 201855
MTR12N
METAR K12N 201854Z AUTO VRB03KT M02/M07 A3024 RMK AO1 SLP252
T10171067





000
SAUS41 KPHI 201815
MTRACY
SPECI KACY 201812Z 29005KT 10SM OVC030 01/M06 A3027 RMK AO2
T00111061





000
SAUS41 KPHI 201757
MTRACY
METAR KACY 201754Z 30006KT 10SM OVC029 01/M06 A3028 RMK AO2 SLP254
T00111061 10017 21017 55010





000
SAUS41 KPHI 201755
MTR12N
METAR K12N 201754Z AUTO 04006KT M02/M07 A3024 RMK AO1 SLP253
T10171067 11011 21022 58016





000
SAUS41 KPHI 201657
MTRACY
METAR KACY 201654Z 35007KT 10SM OVC028 01/M06 A3027 RMK AO2 SLP252
T00111056





000
SAUS41 KPHI 201655
MTR12N
METAR K12N 201654Z AUTO 03004KT M01/M06 A3026 RMK AO1 SLP258
T10111061





000
SAUS41 KPHI 201555
MTRACY
METAR KACY 201554Z 35008KT 10SM OVC026 01/M05 A3030 RMK AO2 SLP260
T00061050





000
SAUS41 KPHI 201555
MTR12N
METAR K12N 201554Z AUTO 01004KT M02/M07 A3027 RMK AO1 SLP264
T10171067





000
SAUS41 KPHI 201456
MTRACY
METAR KACY 201454Z 35007KT 10SM OVC027 01/M05 A3031 RMK AO2 SLP265
T00061050 51018





000
SAUS41 KPHI 201455
MTR12N
METAR K12N 201454Z AUTO 02003KT M02/M07 A3029 RMK AO1 SLP269
T10171067 53015





000
SAUS41 KPHI 201355
MTR12N
METAR K12N 201354Z AUTO VRB03KT M02/M07 A3026 RMK AO1 SLP260
T10171067





000
SAUS41 KPHI 201355
MTRACY
METAR KACY 201354Z 33004KT 10SM OVC028 M01/M04 A3030 RMK AO2 SLP261
T10061044





000
SAUS41 KPHI 201256
MTRACY
METAR KACY 201254Z 30003KT 10SM OVC029 M01/M04 A3028 RMK AO2 SLP253
T10111044





000
SAUS41 KPHI 201255
MTR12N
METAR K12N 201254Z AUTO 34004KT M02/M07 A3025 RMK AO1 SLP256
T10221072





000
SAUS41 KPHI 201157
MTRACY
METAR KACY 201154Z 00000KT 10SM OVC029 M01/M04 A3026 RMK AO2 SLP246
T10111044 11011 21061 53010





000
SAUS41 KPHI 201155
MTR12N
METAR K12N 201154Z AUTO 35004KT M02/M07 A3024 RMK AO1 SLP254
T10221067 11017 21022 51013





000
SAUS41 KPHI 201057
MTRACY
METAR KACY 201054Z 00000KT 10SM OVC029 M02/M04 A3024 RMK AO2 SLP242
T10171044





000
SAUS41 KPHI 201055
MTR12N
METAR K12N 201054Z AUTO VRB03KT M02/M07 A3024 RMK AO1 SLP252
T10221072





000
SAUS41 KPHI 201031
MTRACY
SPECI KACY 201028Z 29003KT 10SM OVC029 M02/M05 A3025 RMK AO2
T10171050





000
SAUS41 KPHI 200955
MTRACY
METAR KACY 200954Z 00000KT 10SM OVC030 M02/M05 A3024 RMK AO2 SLP240
T10221050





000
SAUS41 KPHI 200955
MTR12N
METAR K12N 200954Z AUTO 33003KT M02/M07 A3022 RMK AO1 SLP245
T10221067





000
SAUS41 KPHI 200855
MTR12N
METAR K12N 200854Z AUTO 34003KT M02/M07 A3021 RMK AO1 SLP241
T10221067 53011





000
SAUS41 KPHI 200855
MTRACY
METAR KACY 200854Z 00000KT 10SM OVC030 M03/M05 A3023 RMK AO2 SLP236
T10281050 53007





000
SAUS41 KPHI 200755
MTRACY
METAR KACY 200754Z 00000KT 10SM OVC030 M03/M07 A3022 RMK AO2 SLP232
T10331067





000
SAUS41 KPHI 200755
MTR12N
METAR K12N 200754Z AUTO 36005KT M02/M07 A3019 RMK AO1 SLP234
T10221067





000
SAUS41 KPHI 200755
MTR12N
METAR K12N 200754Z AUTO 36005KT M02/M07 A3019 RMK AO1 SLP234
T10221067





000
SAUS41 KPHI 200755
MTRACY
METAR KACY 200754Z 00000KT 10SM OVC030 M03/M07 A3022 RMK AO2 SLP232
T10331067





000
SAUS41 KPHI 200657
MTRACY
METAR KACY 200654Z 00000KT 10SM FEW031 M06/M08 A3021 RMK AO2 SLP230
T10611083





000
SAUS41 KPHI 200655
MTR12N
METAR K12N 200654Z AUTO 36007KT M02/M07 A3018 RMK AO1 SLP230
T10221067





000
SAUS41 KPHI 200556
MTRACY
METAR KACY 200554Z 29003KT 10SM CLR M03/M07 A3020 RMK AO2 SLP228
T10331067 11006 21044 50004





000
SAUS41 KPHI 200555
MTR12N
METAR K12N 200554Z AUTO VRB06KT M02/M07 A3017 RMK AO1 SLP229
T10171067 11017 21022 50004





000
SAUS41 KPHI 200456
MTRACY
METAR KACY 200454Z 31003KT 10SM CLR M04/M07 A3021 RMK AO2 SLP231
T10391072 400501039





000
SAUS41 KPHI 200455
MTR12N
METAR K12N 200454Z AUTO 35008KT M02/M07 A3018 RMK AO1 SLP231
T10171067 400171022





000
SAUS41 KPHI 200357
MTRACY
METAR KACY 200354Z 31005KT 10SM CLR M03/M07 A3021 RMK AO2 SLP229
T10331067





000
SAUS41 KPHI 200357
MTRACY
METAR KACY 200354Z 31005KT 10SM CLR M03/M07 A3021 RMK AO2 SLP229
T10331067





000
SAUS41 KPHI 200355
MTR12N
METAR K12N 200354Z AUTO 01003KT M02/M07 A3018 RMK AO1 SLP230
T10171067





000
SAUS41 KPHI 200355
MTR12N
METAR K12N 200354Z AUTO 01003KT M02/M07 A3018 RMK AO1 SLP230
T10171067





000
SAUS41 KPHI 200255
MTR12N
METAR K12N 200254Z AUTO 35003KT M02/M07 A3016 RMK AO1 SLP224
T10221067 53001





000
SAUS41 KPHI 200255
MTRACY
METAR KACY 200254Z 32004KT 10SM CLR M03/M07 A3019 RMK AO2 SLP225
T10281067 51014





000
SAUS41 KPHI 200156
MTRACY
METAR KACY 200154Z 34005KT 10SM CLR M02/M06 A3018 RMK AO2 SLP222
T10171061





000
SAUS41 KPHI 200156
MTRACY
METAR KACY 200154Z 34005KT 10SM CLR M02/M06 A3018 RMK AO2 SLP222
T10171061





000
SAUS41 KPHI 200155
MTR12N
METAR K12N 200154Z AUTO 34007KT M02/M07 A3013 RMK AO1 SLP215
T10171067





000
SAUS41 KPHI 200155
MTR12N
METAR K12N 200154Z AUTO 34007KT M02/M07 A3013 RMK AO1 SLP215
T10171067





000
SAUS41 KPHI 200055
MTRACY
METAR KACY 200054Z 01006KT 10SM CLR M01/M06 A3016 RMK AO2 SLP215
T10111056





000
SAUS41 KPHI 200055
MTR12N
METAR K12N 200054Z AUTO 36006KT M02/M07 A3015 RMK AO1 SLP220
T10171067





000
SAUS41 KPHI 192355
MTR12N
METAR K12N 192354Z AUTO 35005KT M02/M07 A3015 RMK AO1 SLP223
T10171072 10000 21017 53023





000
SAUS41 KPHI 192355
MTRACY
METAR KACY 192354Z 34003KT 10SM CLR M01/M06 A3015 RMK AO2 SLP211
T10061056 10050 21006 51026





000
SAUS41 KPHI 192256
MTRACY
METAR KACY 192254Z 29006KT 10SM CLR 01/M06 A3013 RMK AO2 SLP203
T00111056





000
SAUS41 KPHI 192255
MTR12N
METAR K12N 192254Z AUTO VRB05KT M02/M07 A3013 RMK AO1 SLP214
T10171067





000
SAUS41 KPHI 192155
MTR12N
METAR K12N 192154Z AUTO VRB05G15KT M02/M07 A3011 RMK AO1 SLP206
T10171067





000
SAUS41 KPHI 192155
MTRACY
METAR KACY 192154Z 29006KT 10SM CLR 02/M05 A3010 RMK AO2 SLP194
T00221050





000
SAUS41 KPHI 192056
MTRACY
METAR KACY 192054Z 30010KT 10SM CLR 04/M04 A3007 RMK AO2 SLP184
T00441044 53006





000
SAUS41 KPHI 192055
MTR12N
METAR K12N 192054Z AUTO VRB05KT M01/M06 A3008 RMK AO1 SLP199
T10111061 53013





000
SAUS41 KPHI 191955
MTR12N
METAR K12N 191954Z AUTO VRB04KT M01/M06 A3007 RMK AO1 SLP192
T10061061





000
SAUS41 KPHI 191955
MTRACY
METAR KACY 191954Z 31012KT 10SM FEW037 05/M04 A3006 RMK AO2 SLP179
T00501039





000
SAUS41 KPHI 191955
MTRACY
METAR KACY 191954Z 31012KT 10SM FEW037 05/M04 A3006 RMK AO2 SLP179
T00501039





000
SAUS41 KPHI 191955
MTR12N
METAR K12N 191954Z AUTO VRB04KT M01/M06 A3007 RMK AO1 SLP192
T10061061





000
SAUS41 KPHI 191857
MTRACY
METAR KACY 191854Z 32012KT 10SM OVC036 05/M04 A3005 RMK AO2 SLP177
T00501039





000
SAUS41 KPHI 191855
MTR12N
METAR K12N 191854Z AUTO 35006KT M01/M06 A3006 RMK AO1 SLP188
T10061061





000
SAUS41 KPHI 191855
MTR12N
METAR K12N 191854Z AUTO 35006KT M01/M06 A3006 RMK AO1 SLP188
T10061061





000
SAUS41 KPHI 191755
MTRACY
METAR KACY 191754Z 33013KT 10SM OVC035 04/M04 A3005 RMK AO2 SLP178
T00441039 10044 20017 56009





000
SAUS41 KPHI 191755
MTR12N
METAR K12N 191754Z AUTO 01006KT 00/M06 A3004 RMK AO1 SLP184
T00001056 10011 20000 55008





000
SAUS41 KPHI 191657
MTRACY
METAR KACY 191654Z 31011KT 10SM OVC034 04/M04 A3006 RMK AO2 SLP180
T00391039





000
SAUS41 KPHI 191656
MTR12N
METAR K12N 191654Z AUTO 35008G15KT 00/M07 A3004 RMK AO1 SLP184
T00001067





000
SAUS41 KPHI 191555
MTRACY
METAR KACY 191554Z 30015KT 10SM OVC035 03/M04 A3007 RMK AO2 SLP184
T00331039





000
SAUS41 KPHI 191555
MTR12N
METAR K12N 191554Z AUTO 35008KT 00/M06 A3006 RMK AO1 SLP190
T00001061





000
SAUS41 KPHI 191455
MTR12N
METAR K12N 191454Z AUTO 35008G14KT 310V020 00/M06 A3007 RMK AO1
SLP193 T00001061 51024





000
SAUS41 KPHI 191455
MTRACY
METAR KACY 191454Z 29011KT 10SM OVC036 03/M03 A3008 RMK AO2 SLP187
T00331033 51011





000
SAUS41 KPHI 191355
MTRACY
METAR KACY 191354Z 28010KT 10SM OVC036 02/M03 A3007 RMK AO2 SLP184
T00221033





000
SAUS41 KPHI 191355
MTR12N
METAR K12N 191354Z AUTO 36006KT 00/M06 A3005 RMK AO1 SLP186
T00001061





000
SAUS41 KPHI 191256
MTRACY
METAR KACY 191254Z 28008KT 10SM OVC032 02/M03 A3006 RMK AO2 SLP180
T00221033





000
SAUS41 KPHI 191255
MTR12N
METAR K12N 191254Z AUTO 34005KT 01/M06 A3002 RMK AO1 SLP175
T00061056





000
SAUS41 KPHI 191157
MTRACY
METAR KACY 191154Z 28008KT 10SM OVC031 02/M03 A3005 RMK AO2 SLP176
T00171033 10022 20011 53006





000
SAUS41 KPHI 191155
MTR12N
METAR K12N 191154Z AUTO 35007KT 310V020 01/M06 A3000 RMK AO1 SLP167
T00111056 10017 20011 53008





000
SAUS41 KPHI 191057
MTRACY
METAR KACY 191054Z 28009KT 10SM OVC034 02/M04 A3004 RMK AO2 SLP172
T00171039





000
SAUS41 KPHI 191056
MTR12N
METAR K12N 191054Z AUTO VRB04KT 01/M05 A2998 RMK AO1 SLP162
T00111050





000
SAUS41 KPHI 190955
MTRACY
METAR KACY 190954Z 28009KT 10SM OVC036 02/M04 A3003 RMK AO2 SLP169
T00171039





000
SAUS41 KPHI 190955
MTR12N
METAR K12N 190954Z AUTO VRB04KT 01/M04 A2997 RMK AO1 SLP159
T00111044





000
SAUS41 KPHI 190955
MTRACY
METAR KACY 190954Z 28009KT 10SM OVC036 02/M04 A3003 RMK AO2 SLP169
T00171039





000
SAUS41 KPHI 190955
MTR12N
METAR K12N 190954Z AUTO VRB04KT 01/M04 A2997 RMK AO1 SLP159
T00111044





000
SAUS41 KPHI 190856
MTRACY
METAR KACY 190854Z 26009KT 10SM BKN037 01/M04 A3003 RMK AO2 SLP170
T00111039 51006





000
SAUS41 KPHI 190855
MTR12N
METAR K12N 190854Z AUTO 35003KT 01/M04 A2997 RMK AO1 SLP159
T00111044 50000





000
SAUS41 KPHI 190756
MTRACY
METAR KACY 190754Z 28008KT 10SM CLR 02/M04 A3003 RMK AO2 SLP169
T00171039





000
SAUS41 KPHI 190755
MTR12N
METAR K12N 190754Z AUTO VRB04KT 01/M04 A2997 RMK AO1 SLP159
T00111044





000
SAUS41 KPHI 190655
MTR12N
METAR K12N 190654Z AUTO 32005KT 02/M04 A2997 RMK AO1 SLP158
T00171044





000
SAUS41 KPHI 190655
MTRACY
METAR KACY 190654Z 28009KT 10SM BKN120 02/M03 A3002 RMK AO2 SLP167
T00171033





000
SAUS41 KPHI 190555
MTR12N
METAR K12N 190554Z AUTO 00000KT 02/M04 A2997 RMK AO1 SLP158
T00171044 10022 20017 56005





000
SAUS41 KPHI 190555
MTRACY
METAR KACY 190554Z 29011KT 10SM OVC120 02/M03 A3001 RMK AO2 SLP163
T00221033 10022 20011 58006





000
SAUS41 KPHI 190456
MTRACY
METAR KACY 190454Z 29010KT 10SM OVC110 02/M03 A3002 RMK AO2 SLP165
T00221033 400560006





000
SAUS41 KPHI 190455
MTR12N
METAR K12N 190454Z AUTO VRB04KT 02/M04 A2997 RMK AO1 SLP157
T00171039 400330011





000
SAUS41 KPHI 190355
MTR12N
METAR K12N 190354Z AUTO VRB05KT 02/M03 A2998 RMK AO1 SLP161
T00171033





000
SAUS41 KPHI 190355
MTRACY
METAR KACY 190354Z 28010KT 10SM OVC100 02/M03 A3003 RMK AO2 SLP170
T00171033





000
SAUS41 KPHI 190355
MTR12N
METAR K12N 190354Z AUTO VRB05KT 02/M03 A2998 RMK AO1 SLP161
T00171033





000
SAUS41 KPHI 190355
MTRACY
METAR KACY 190354Z 28010KT 10SM OVC100 02/M03 A3003 RMK AO2 SLP170
T00171033





000
SAUS41 KPHI 190256
MTRACY
METAR KACY 190254Z 28009KT 10SM FEW120 02/M04 A3003 RMK AO2 SLP169
T00171039 58001





000
SAUS41 KPHI 190255
MTR12N
METAR K12N 190254Z AUTO 33003KT 02/M03 A2999 RMK AO1 SLP163
T00171033 53004





000
SAUS41 KPHI 190155
MTR12N
METAR K12N 190154Z AUTO VRB06KT 02/M03 A2997 RMK AO1 SLP158
T00221033





000
SAUS41 KPHI 190155
MTRACY
METAR KACY 190154Z 27009KT 10SM BKN035 02/M04 A3005 RMK AO2 SLP175
T00171039





000
SAUS41 KPHI 190155
MTRACY
METAR KACY 190154Z 27009KT 10SM BKN035 02/M04 A3005 RMK AO2 SLP175
T00171039





000
SAUS41 KPHI 190155
MTR12N
METAR K12N 190154Z AUTO VRB06KT 02/M03 A2997 RMK AO1 SLP158
T00221033





000
SAUS41 KPHI 190057
MTRACY
METAR KACY 190054Z 27008KT 10SM CLR 02/M04 A3004 RMK AO2 SLP172
T00171044





000
SAUS41 KPHI 190055
MTR12N
METAR K12N 190054Z AUTO VRB04KT 02/M03 A2998 RMK AO1 SLP161
T00221033





000
SAUS41 KPHI 182356
MTR12N
METAR K12N 182354Z AUTO 34007KT 260V010 02/M03 A2997 RMK AO1 SLP159
T00221033 10033 20022 55001





000
SAUS41 KPHI 182356
MTRACY
METAR KACY 182354Z 26009KT 10SM CLR 02/M04 A3003 RMK AO2 SLP170
T00171044 10056 20017 51011





000
SAUS41 KPHI 182255
MTRACY
METAR KACY 182254Z 28007KT 10SM CLR 02/M04 A3002 RMK AO2 SLP167
T00171044





000
SAUS41 KPHI 182255
MTR12N
METAR K12N 182254Z AUTO VRB04KT 02/M03 A2997 RMK AO1 SLP158
T00221033





000
SAUS41 KPHI 182155
MTRACY
METAR KACY 182154Z 30012KT 10SM CLR 03/M04 A3001 RMK AO2 SLP164
T00281044





000
SAUS41 KPHI 182155
MTR12N
METAR K12N 182154Z AUTO VRB04KT 02/M04 A2998 RMK AO1 SLP161
T00221039





000
SAUS41 KPHI 182056
MTRACY
METAR KACY 182054Z 30015G21KT 10SM CLR 04/M04 A3000 RMK AO2 SLP159
T00391044 55002





000
SAUS41 KPHI 182055
MTR12N
METAR K12N 182054Z AUTO 34006KT 02/M04 A2998 RMK AO1 SLP160
T00221039 53007





000
SAUS41 KPHI 181955
MTRACY
METAR KACY 181954Z 31017G24KT 10SM CLR 04/M05 A2999 RMK AO2 PK WND
32026/1933 SLP156 T00441050





000
SAUS41 KPHI 181955
MTR12N
METAR K12N 181954Z AUTO 33007G15KT 260V010 02/M04 A2996 RMK AO1
SLP155 T00221044





000
SAUS41 KPHI 181855
MTRACY
METAR KACY 181854Z 29017KT 10SM CLR 04/M05 A3000 RMK AO2 PK WND
32026/1803 SLP159 T00441050





000
SAUS41 KPHI 181855
MTR12N
METAR K12N 181854Z AUTO VRB06KT 03/M05 A2995 RMK AO1 SLP151
T00281050





000
SAUS41 KPHI 181755
MTRACY
METAR KACY 181754Z 30013G24KT 10SM CLR 05/M05 A3001 RMK AO2 PK WND
30026/1713 SLP161 T00501050 10050 20006 58019





000
SAUS41 KPHI 181755
MTR12N
METAR K12N 181754Z AUTO VRB05G17KT 03/M05 A2996 RMK AO1 SLP153
T00281050 10033 20011 56016





000
SAUS41 KPHI 181657
MTRACY
METAR KACY 181654Z 28019G26KT 10SM CLR 04/M06 A3003 RMK AO2 PK WND
29026/1654 SLP169 T00441056





000
SAUS41 KPHI 181655
MTR12N
METAR K12N 181654Z AUTO VRB06KT 03/M05 A2998 RMK AO1 SLP159
T00331050





000
SAUS41 KPHI 181555
MTRACY
METAR KACY 181554Z 30017G25KT 10SM CLR 04/M06 A3005 RMK AO2 PK WND
30028/1511 SLP177 T00441056





000
SAUS41 KPHI 181555
MTR12N
METAR K12N 181554Z AUTO 33009G15KT 270V010 03/M06 A2998 RMK AO1
SLP161 T00281056





000
SAUS41 KPHI 181457
MTRACY
METAR KACY 181454Z 31019G26KT 10SM CLR 04/M06 A3006 RMK AO2 PK WND
30026/1448 SLP180 T00391061 50001





000
SAUS41 KPHI 181455
MTR12N
METAR K12N 181454Z AUTO 35008G15KT 320V020 02/M06 A3001 RMK AO1
SLP169 T00221056 53015





000
SAUS41 KPHI 181357
MTRACY
METAR KACY 181354Z 30016KT 10SM CLR 02/M07 A3006 RMK AO2 SLP181
T00221067





000
SAUS41 KPHI 181357
MTRACY
METAR KACY 181354Z 30016KT 10SM CLR 02/M07 A3006 RMK AO2 SLP181
T00221067





000
SAUS41 KPHI 181355
MTR12N
METAR K12N 181354Z AUTO VRB06KT 02/M06 A2999 RMK AO1 SLP163
T00171061





000
SAUS41 KPHI 181355
MTR12N
METAR K12N 181354Z AUTO VRB06KT 02/M06 A2999 RMK AO1 SLP163
T00171061





000
SAUS41 KPHI 181257
MTRACY
METAR KACY 181254Z 28010KT 10SM CLR 01/M08 A3006 RMK AO2 SLP181
T00061078





000
SAUS41 KPHI 181257
MTRACY
METAR KACY 181254Z 28010KT 10SM CLR 01/M08 A3006 RMK AO2 SLP181
T00061078





000
SAUS41 KPHI 181255
MTR12N
METAR K12N 181254Z AUTO VRB04KT 01/M06 A2998 RMK AO1 SLP159
T00111061





000
SAUS41 KPHI 181255
MTR12N
METAR K12N 181254Z AUTO VRB04KT 01/M06 A2998 RMK AO1 SLP159
T00111061





000
SAUS41 KPHI 181157
MTRACY
METAR KACY 181154Z 28008KT 10SM CLR 01/M08 A3006 RMK AO2 SLP179
T00061078 10022 20006 53023





000
SAUS41 KPHI 181157
MTRACY
METAR KACY 181154Z 28008KT 10SM CLR 01/M08 A3006 RMK AO2 SLP179
T00061078 10022 20006 53023





000
SAUS41 KPHI 181155
MTR12N
METAR K12N 181154Z AUTO 34008G17KT 02/M06 A2996 RMK AO1 SLP153
T00171061 10028 20017 53012





000
SAUS41 KPHI 181155
MTR12N
METAR K12N 181154Z AUTO 34008G17KT 02/M06 A2996 RMK AO1 SLP153
T00171061 10028 20017 53012





000
SAUS41 KPHI 181055
MTR12N
METAR K12N 181054Z AUTO VRB06KT 02/M06 A2995 RMK AO1 SLP148
T00171061





000
SAUS41 KPHI 181055
MTRACY
METAR KACY 181054Z 29009KT 10SM CLR 01/M07 A3004 RMK AO2 SLP172
T00061072





000
SAUS41 KPHI 181055
MTR12N
METAR K12N 181054Z AUTO VRB06KT 02/M06 A2995 RMK AO1 SLP148
T00171061





000
SAUS41 KPHI 181055
MTRACY
METAR KACY 181054Z 29009KT 10SM CLR 01/M07 A3004 RMK AO2 SLP172
T00061072





000
SAUS41 KPHI 180957
MTRACY
METAR KACY 180954Z 29010KT 10SM CLR 01/M06 A3001 RMK AO2 SLP162
T00111061





000
SAUS41 KPHI 180955
MTR12N
METAR K12N 180954Z AUTO VRB06KT 02/M06 A2993 RMK AO1 SLP142
T00171061





000
SAUS41 KPHI 180856
MTRACY
METAR KACY 180854Z 29008KT 10SM CLR 01/M05 A2999 RMK AO2 SLP156
T00061050 50006





000
SAUS41 KPHI 180856
MTRACY
METAR KACY 180854Z 29008KT 10SM CLR 01/M05 A2999 RMK AO2 SLP156
T00061050 50006





000
SAUS41 KPHI 180855
MTR12N
METAR K12N 180854Z AUTO 34007KT 290V040 02/M05 A2993 RMK AO1 SLP141
T00171050 50014





000
SAUS41 KPHI 180855
MTR12N
METAR K12N 180854Z AUTO 34007KT 290V040 02/M05 A2993 RMK AO1 SLP141
T00171050 50014





000
SAUS41 KPHI 180755
MTR12N
METAR K12N 180754Z AUTO 34005KT 02/M04 A2993 RMK AO1 SLP141
T00171039





000
SAUS41 KPHI 180755
MTRACY
METAR KACY 180754Z 28010KT 10SM CLR 01/M05 A2999 RMK AO2 SLP157
T00111050





000
SAUS41 KPHI 180755
MTR12N
METAR K12N 180754Z AUTO 34005KT 02/M04 A2993 RMK AO1 SLP141
T00171039





000
SAUS41 KPHI 180755
MTRACY
METAR KACY 180754Z 28010KT 10SM CLR 01/M05 A2999 RMK AO2 SLP157
T00111050





000
SAUS41 KPHI 180657
MTRACY
METAR KACY 180654Z 28011KT 10SM CLR 02/M05 A2998 RMK AO2 SLP152
T00171050





000
SAUS41 KPHI 180655
MTR12N
METAR K12N 180654Z AUTO VRB04KT 03/M04 A2991 RMK AO1 SLP132
T00281039





000
SAUS41 KPHI 180556
MTRACY
METAR KACY 180554Z 28009KT 10SM CLR 02/M05 A2997 RMK AO2 SLP149
T00221050 10067 20022 55001





000
SAUS41 KPHI 180555
MTR12N
METAR K12N 180554Z AUTO VRB03KT 03/M03 A2988 RMK AO1 SLP124
T00281033 10056 20028 58006





000
SAUS41 KPHI 180457
MTRACY
METAR KACY 180454Z 30009KT 10SM CLR 03/M04 A2996 RMK AO2 SLP144
T00281039 401220028





000
SAUS41 KPHI 180456
MTR12N
METAR K12N 180454Z AUTO VRB04KT 03/M04 A2989 RMK AO1 SLP127
T00331044 401000017





000
SAUS41 KPHI 180355
MTR12N
METAR K12N 180354Z AUTO VRB04KT 03/M03 A2990 RMK AO1 SLP131
T00331033





000
SAUS41 KPHI 180355
MTRACY
METAR KACY 180354Z 29010KT 10SM CLR 03/M04 A2997 RMK AO2 SLP149
T00331039





000
SAUS41 KPHI 180355
MTR12N
METAR K12N 180354Z AUTO VRB04KT 03/M03 A2990 RMK AO1 SLP131
T00331033





000
SAUS41 KPHI 180355
MTRACY
METAR KACY 180354Z 29010KT 10SM CLR 03/M04 A2997 RMK AO2 SLP149
T00331039





000
SAUS41 KPHI 180257
MTRACY
METAR KACY 180254Z 28010KT 10SM CLR 04/M04 A2998 RMK AO2 SLP151
T00441039 51010





000
SAUS41 KPHI 180255
MTR12N
METAR K12N 180254Z AUTO 00000KT 04/M03 A2990 RMK AO1 SLP131
T00391033 51004





    US Dept of Commerce
    National Oceanic and Atmospheric Administration
    National Weather Service
    1325 East West Highway
    Silver Spring, MD 20910
    Page Author: NWS Internet Services Team
Disclaimer
Information Quality
Credits
Glossary
Privacy Policy
Freedom of Information Act (FOIA)
About Us
Career Opportunities